Time;durP1;ratioP1;P1;durP2;ratioP2;P2;SDS_P1;SDS_P2;PMS_P1;PMS_P2;Temp;Humidity;BMP_temperature;BMP_pressure;BME280_temperature;BME280_humidity;BME280_pressure;Samples;Min_cycle;Max_cycle;Signal;HPM_P1;HPM_P2
2022/05/06 00:00:11;;;;;;;4.53;3.15;;;;;;;16.20;65.25;102197.59;5071771;28;20020;-84
2022/05/06 00:02:37;;;;;;;;;;;;;;;16.28;65.01;102202.44;5073268;28;20121;-84
2022/05/06 00:05:03;;;;;;;3.92;3.03;;;;;;;16.22;64.83;102210.00;5089121;28;19970;-84
2022/05/06 00:07:29;;;;;;;4.35;2.75;;;;;;;16.22;64.70;102209.13;5073154;28;20035;-85
2022/05/06 00:09:55;;;;;;;5.97;3.30;;;;;;;15.95;64.97;102161.97;5072615;28;20024;-84
2022/05/06 00:12:21;;;;;;;4.13;2.90;;;;;;;16.21;64.39;102210.84;5064919;28;20045;-84
2022/05/06 00:14:47;;;;;;;6.38;3.20;;;;;;;16.16;64.82;102206.16;5073268;28;20036;-84
2022/05/06 00:17:13;;;;;;;3.92;2.72;;;;;;;16.10;64.35;102196.16;5072835;28;20409;-84
2022/05/06 00:19:38;;;;;;;;;;;;;;;16.24;64.94;102211.00;5071901;28;20055;-84
2022/05/06 00:22:04;;;;;;;4.55;2.88;;;;;;;15.94;64.13;102164.53;5088848;28;19916;-84
2022/05/06 00:24:30;;;;;;;4.40;2.90;;;;;;;15.91;64.42;102165.28;5072634;28;20037;-84
2022/05/06 00:26:58;;;;;;;3.47;2.80;;;;;;;15.88;64.98;102155.47;5072968;28;20057;-84
2022/05/06 00:29:24;;;;;;;5.00;3.03;;;;;;;16.00;64.83;102186.88;5071769;28;20509;-84
2022/05/06 00:31:50;;;;;;;6.90;3.10;;;;;;;16.04;64.88;102191.50;5071630;28;20111;-84
2022/05/06 00:34:16;;;;;;;3.80;3.10;;;;;;;15.83;64.33;102154.34;5072734;28;20583;-84
2022/05/06 00:36:42;;;;;;;5.72;3.17;;;;;;;16.03;64.42;102188.75;5072567;28;20029;-84
2022/05/06 00:39:08;;;;;;;3.13;2.45;;;;;;;16.10;64.65;102200.53;5072775;28;20102;-84
2022/05/06 00:41:35;;;;;;;4.05;3.03;;;;;;;16.13;64.68;102213.88;5071177;28;20033;-84
2022/05/06 00:44:01;;;;;;;3.40;2.65;;;;;;;16.10;64.54;102204.06;5071598;28;20112;-84
2022/05/06 00:46:27;;;;;;;3.42;2.83;;;;;;;16.12;64.29;102210.34;5072576;28;20024;-84
2022/05/06 00:48:55;;;;;;;3.88;2.85;;;;;;;15.98;64.15;102190.22;5071019;28;20090;-84
2022/05/06 00:51:20;;;;;;;3.75;2.80;;;;;;;16.04;64.41;102194.13;5054717;28;20464;-84
2022/05/06 00:53:47;;;;;;;4.28;2.83;;;;;;;15.98;64.38;102184.94;5071865;28;20036;-84
2022/05/06 00:56:15;;;;;;;3.85;3.00;;;;;;;16.09;64.01;102199.63;5072093;28;20033;-84
2022/05/06 00:58:43;;;;;;;4.18;2.85;;;;;;;16.07;64.18;102201.28;5069606;28;20036;-84
2022/05/06 01:01:08;;;;;;;3.75;2.70;;;;;;;15.73;63.86;102138.84;5070141;28;20033;-84
2022/05/06 01:03:34;;;;;;;3.80;2.92;;;;;;;15.85;64.03;102165.88;5072083;28;20029;-84
2022/05/06 01:06:03;;;;;;;3.85;2.67;;;;;;;16.05;63.75;102200.28;5072497;28;20055;-84
2022/05/06 01:08:29;;;;;;;3.60;2.47;;;;;;;16.03;63.93;102200.19;5070239;28;20040;-84
2022/05/06 01:10:57;;;;;;;3.22;2.47;;;;;;;15.93;63.78;102179.44;5071978;28;20070;-84
2022/05/06 01:13:23;;;;;;;3.45;2.80;;;;;;;15.98;63.44;102191.16;5070884;28;20052;-84
2022/05/06 01:15:49;;;;;;;3.78;2.75;;;;;;;15.89;63.69;102174.81;5070236;28;20036;-84
2022/05/06 01:18:15;;;;;;;4.10;2.72;;;;;;;15.90;64.19;102181.00;5070841;28;20028;-84
2022/05/06 01:20:47;;;;;;;3.92;2.90;;;;;;;16.00;64.10;102207.03;5072200;28;20409;-84
2022/05/06 01:23:13;;;;;;;4.30;2.38;;;;;;;15.95;63.98;102195.34;5071751;28;20102;-84
2022/05/06 01:25:39;;;;;;;3.30;2.97;;;;;;;15.98;63.83;102200.75;5071018;28;20524;-84
2022/05/06 01:28:06;;;;;;;4.00;2.70;;;;;;;15.95;64.07;102195.34;5071845;28;20112;-84
2022/05/06 01:30:39;;;;;;;4.75;2.67;;;;;;;15.93;63.63;102195.25;5069956;28;20031;-84
2022/05/06 01:33:06;;;;;;;2.92;2.35;;;;;;;15.95;64.03;102196.22;5070753;28;20020;-84
2022/05/06 01:35:53;;;;;;;4.28;2.70;;;;;;;15.73;63.84;102159.00;5070684;28;20032;-84
2022/05/06 01:38:37;;;;;;;4.88;2.47;;;;;;;15.95;64.00;102198.88;5071744;28;20032;-84
2022/05/06 01:41:05;;;;;;;3.53;2.58;;;;;;;15.95;64.15;102197.97;5070398;28;20024;-84
2022/05/06 01:43:39;;;;;;;3.65;2.78;;;;;;;15.82;64.28;102177.94;5070557;28;20028;-84
2022/05/06 01:46:06;;;;;;;5.13;2.58;;;;;;;15.92;63.56;102198.72;5071603;28;20029;-84
2022/05/06 01:48:34;;;;;;;6.75;2.55;;;;;;;15.86;64.03;102191.38;5069745;28;20493;-84
2022/05/06 01:51:00;;;;;;;3.85;2.67;;;;;;;15.88;63.65;102188.81;5071686;28;20040;-84
2022/05/06 01:53:25;;;;;;;;;;;;;;;15.95;64.04;102192.69;5070666;28;20033;-84
2022/05/06 01:55:51;;;;;;;4.07;2.78;;;;;;;15.80;64.03;102174.31;5070453;28;19912;-84
2022/05/06 01:58:17;;;;;;;3.15;2.38;;;;;;;15.75;64.05;102165.28;5071622;28;20028;-84
2022/05/06 02:00:42;;;;;;;5.35;2.60;;;;;;;15.69;64.10;102152.63;5071445;28;20032;-84
2022/05/06 02:05:16;;;;;;;3.15;2.50;;;;;;;15.59;64.10;102143.28;5070339;28;20540;-84
2022/05/06 02:05:54;;;;;;;4.35;2.55;;;;;;;15.70;63.87;102162.31;5071150;28;20037;-84
2022/05/06 02:08:19;;;;;;;4.75;2.80;;;;;;;15.62;64.02;102142.56;5070236;28;20558;-84
2022/05/06 02:10:45;;;;;;;4.03;2.75;;;;;;;15.77;64.14;102171.50;5070094;28;20131;-84
2022/05/06 02:13:10;;;;;;;4.57;2.53;;;;;;;15.56;64.18;102129.97;5071093;28;20029;-84
2022/05/06 02:15:38;;;;;;;3.08;2.45;;;;;;;15.78;64.24;102171.59;5070886;28;20029;-84
2022/05/06 02:18:04;;;;;;;2.88;2.40;;;;;;;15.71;64.04;102165.88;5069861;28;20036;-84
2022/05/06 02:20:30;;;;;;;4.80;2.58;;;;;;;15.82;64.33;102191.13;5069232;28;20405;-84
2022/05/06 02:22:55;;;;;;;2.78;2.35;;;;;;;15.78;64.24;102165.44;5070045;28;20033;-84
2022/05/06 02:25:22;;;;;;;4.00;2.60;;;;;;;15.59;64.17;102140.66;5069872;28;20417;-84
2022/05/06 02:27:48;;;;;;;;;;;;;;;15.85;64.20;102186.94;5070319;28;20089;-84
2022/05/06 02:33:13;;;;;;;4.03;2.60;;;;;;;15.76;63.84;102170.59;5070629;28;20087;-84
2022/05/06 02:35:40;;;;;;;3.72;2.55;;;;;;;15.72;64.01;102157.19;5071021;28;20029;-84
2022/05/06 02:38:08;;;;;;;5.20;2.67;;;;;;;15.75;63.89;102163.53;5069531;28;20484;-84
2022/05/06 02:40:35;;;;;;;3.22;2.58;;;;;;;15.68;63.82;102149.09;5069493;28;20119;-84
2022/05/06 02:43:05;;;;;;;3.25;2.58;;;;;;;15.73;63.66;102157.28;5070855;28;20029;-84
2022/05/06 02:45:31;;;;;;;6.45;2.30;;;;;;;15.74;63.89;102169.59;5069361;28;20108;-84
2022/05/06 02:47:57;;;;;;;3.78;2.65;;;;;;;15.45;64.13;102123.19;5069091;28;20037;-84
2022/05/06 02:50:24;;;;;;;4.05;2.80;;;;;;;15.71;63.77;102168.53;5069420;28;20029;-84
2022/05/06 02:52:49;;;;;;;5.20;2.92;;;;;;;15.80;63.91;102184.84;5069576;28;20047;-84
2022/05/06 02:55:15;;;;;;;4.75;2.47;;;;;;;15.50;63.77;102145.44;5069791;28;20029;-84
2022/05/06 02:57:41;;;;;;;4.35;2.70;;;;;;;15.66;63.63;102162.97;5069129;28;20104;-84
2022/05/06 03:00:07;;;;;;;7.45;2.42;;;;;;;15.71;63.52;102173.78;5070752;28;20032;-84
2022/05/06 03:02:33;;;;;;;4.30;2.45;;;;;;;15.64;63.37;102165.53;5072650;28;20194;-83
2022/05/06 03:04:59;;;;;;;3.67;2.67;;;;;;;15.65;63.47;102175.25;5073133;28;20522;-84
2022/05/06 03:07:25;;;;;;;6.68;2.88;;;;;;;15.64;63.54;102172.50;5074545;28;20082;-84
2022/05/06 03:09:52;;;;;;;2.55;2.35;;;;;;;15.74;63.97;102185.41;5072974;28;20383;-84
2022/05/06 03:12:19;;;;;;;2.80;2.33;;;;;;;15.65;63.88;102175.25;5072320;28;20134;-84
2022/05/06 03:14:46;;;;;;;2.63;2.35;;;;;;;15.66;63.65;102186.69;5072984;28;20024;-84
2022/05/06 03:17:12;;;;;;;4.03;2.45;;;;;;;15.57;63.68;102179.16;5073692;28;20040;-84
2022/05/06 03:19:38;;;;;;;4.22;2.65;;;;;;;15.51;63.45;102164.75;5072667;28;20454;-84
2022/05/06 03:22:04;;;;;;;3.13;2.30;;;;;;;15.62;63.75;102184.69;5074243;28;20501;-84
2022/05/06 03:24:29;;;;;;;4.38;2.67;;;;;;;15.66;63.44;102192.88;5074401;28;20021;-83
2022/05/06 03:26:55;;;;;;;3.72;2.72;;;;;;;15.54;63.64;102168.47;5073878;28;20063;-84
2022/05/06 03:29:21;;;;;;;3.95;2.30;;;;;;;15.64;63.59;102191.88;5074100;28;20067;-84
2022/05/06 03:31:47;;;;;;;3.67;2.47;;;;;;;15.63;63.89;102189.16;5073213;28;20040;-83
2022/05/06 03:34:12;;;;;;;2.80;2.05;;;;;;;15.43;63.74;102157.34;5072563;28;20719;-83
2022/05/06 03:36:38;;;;;;;3.33;2.25;;;;;;;15.54;63.46;102186.91;5072741;28;20068;-83
2022/05/06 03:39:04;;;;;;;4.10;2.50;;;;;;;15.62;63.87;102214.59;5072180;28;20093;-84
2022/05/06 03:41:30;;;;;;;3.38;2.35;;;;;;;15.45;64.01;102171.50;5073693;28;20029;-83
2022/05/06 03:43:56;;;;;;;4.40;2.40;;;;;;;15.61;63.79;102207.50;5072486;28;20471;-84
2022/05/06 03:46:22;;;;;;;4.35;2.58;;;;;;;15.45;63.64;102189.00;5072313;28;20028;-84
2022/05/06 03:48:47;;;;;;;2.70;2.20;;;;;;;15.47;63.66;102190.00;5057644;28;20060;-84
2022/05/06 03:51:22;;;;;;;4.72;2.30;;;;;;;15.41;63.58;102181.78;5073457;28;20107;-84
2022/05/06 03:53:52;;;;;;;3.40;2.75;;;;;;;15.45;63.48;102199.53;5072167;28;20039;-84
2022/05/06 03:56:18;;;;;;;2.92;2.50;;;;;;;15.56;63.40;102224.78;5072316;28;20035;-84
2022/05/06 03:58:44;;;;;;;4.35;2.67;;;;;;;15.50;63.94;102211.25;5071920;28;20612;-84
2022/05/06 04:01:11;;;;;;;3.03;2.30;;;;;;;15.35;63.43;102186.69;5071998;28;20039;-84
2022/05/06 04:03:36;;;;;;;;;;;;;;;15.60;64.05;102221.50;5072495;28;20117;-84
2022/05/06 04:06:02;;;;;;;2.95;2.40;;;;;;;15.43;63.66;102201.16;5072561;28;19944;-84
2022/05/06 04:08:28;;;;;;;4.03;2.42;;;;;;;15.42;63.86;102212.53;5073466;28;20039;-84
2022/05/06 04:10:54;;;;;;;3.80;2.42;;;;;;;15.21;63.28;102176.25;5071253;28;20048;-84
2022/05/06 04:13:19;;;;;;;4.63;2.90;;;;;;;15.50;63.58;102226.16;5071900;28;20036;-84
2022/05/06 04:15:46;;;;;;;3.88;2.42;;;;;;;15.24;63.61;102184.34;5073030;28;20418;-84
2022/05/06 04:18:12;;;;;;;;;;;;;;;15.54;64.13;102231.69;5072141;28;20032;-84
2022/05/06 04:23:31;;;;;;;3.65;2.47;;;;;;;15.30;63.64;102185.50;5072812;28;20036;-84
2022/05/06 04:25:58;;;;;;;4.53;2.65;;;;;;;15.38;63.90;102213.19;5072785;28;20027;-84
2022/05/06 04:28:25;;;;;;;3.85;2.30;;;;;;;15.40;63.91;102212.44;5071935;28;20036;-84
2022/05/06 04:30:51;;;;;;;3.03;2.42;;;;;;;15.46;63.91;102219.78;5071509;28;20120;-85
2022/05/06 04:33:18;;;;;;;3.85;2.35;;;;;;;15.45;63.84;102217.97;5071744;28;20024;-84
2022/05/06 04:35:44;;;;;;;4.43;2.38;;;;;;;15.44;63.96;102224.06;5054687;28;20049;-84
2022/05/06 04:38:10;;;;;;;;;;;;;;;15.47;64.24;102222.53;5072847;28;20029;-85
2022/05/06 04:40:36;;;;;;;2.58;2.38;;;;;;;15.18;63.56;102175.19;5088012;28;19916;-84
2022/05/06 04:43:01;;;;;;;5.40;2.35;;;;;;;15.08;64.16;102163.22;5071200;28;20094;-84
2022/05/06 04:45:28;;;;;;;2.28;2.03;;;;;;;15.24;64.01;102193.97;5071538;28;20036;-85
2022/05/06 04:47:54;;;;;;;3.92;2.33;;;;;;;15.00;63.91;102149.59;5054832;28;20035;-84
2022/05/06 04:50:21;;;;;;;4.88;2.38;;;;;;;15.12;63.95;102170.47;5072398;28;20028;-84
2022/05/06 04:52:47;;;;;;;3.35;2.45;;;;;;;15.13;64.04;102172.28;5071925;28;20037;-85
2022/05/06 04:55:12;;;;;;;3.13;2.15;;;;;;;15.10;64.15;102168.56;5064647;28;20034;-84
2022/05/06 04:57:38;;;;;;;3.95;2.47;;;;;;;15.35;64.25;102207.75;5070468;28;20093;-86
2022/05/06 05:00:04;;;;;;;6.55;2.38;;;;;;;15.35;64.29;102213.00;5070848;28;20036;-84
2022/05/06 05:02:30;;;;;;;;;;;;;;;15.40;64.69;102216.81;5057628;28;20080;-85
2022/05/06 05:04:58;;;;;;;3.80;2.28;;;;;;;15.37;64.63;102221.91;5060696;28;20407;-85
2022/05/06 05:07:24;;;;;;;3.33;2.28;;;;;;;15.37;64.55;102228.06;5067716;28;20029;-87
2022/05/06 05:09:50;;;;;;;;;;;;;;;15.42;64.47;102231.84;5053438;28;20123;-86
2022/05/06 05:12:17;;;;;;;3.70;2.50;;;;;;;15.25;64.41;102207.19;5065918;28;20020;-88
2022/05/06 05:14:42;;;;;;;3.67;2.45;;;;;;;14.90;64.47;102143.72;5068390;28;20082;-85
2022/05/06 05:17:13;;;;;;;2.83;2.25;;;;;;;15.26;64.82;102211.66;5055096;28;20520;-85
2022/05/06 05:19:40;;;;;;;2.40;2.20;;;;;;;15.01;64.60;102166.31;5051175;28;20064;-84
2022/05/06 05:22:06;;;;;;;3.70;2.58;;;;;;;15.07;64.53;102190.34;5057736;28;20114;-85
2022/05/06 05:24:32;;;;;;;5.05;2.28;;;;;;;15.13;64.79;102195.06;5066471;28;20031;-85
2022/05/06 05:26:58;;;;;;;4.90;2.38;;;;;;;15.37;64.75;102235.97;5053648;28;20037;-85
2022/05/06 05:29:24;;;;;;;5.13;2.50;;;;;;;15.17;64.95;102200.56;5051365;28;20032;-84
2022/05/06 05:31:53;;;;;;;3.72;2.30;;;;;;;15.36;64.75;102228.88;5052763;28;20021;-85
2022/05/06 05:34:18;;;;;;;2.40;2.20;;;;;;;15.24;64.80;102213.28;5064200;28;20554;-85
2022/05/06 05:36:45;;;;;;;4.25;2.30;;;;;;;15.24;64.71;102208.03;5070003;28;20105;-84
2022/05/06 05:39:11;;;;;;;2.40;2.15;;;;;;;15.16;64.98;102200.50;5051934;28;20029;-84
2022/05/06 05:41:38;;;;;;;2.63;2.08;;;;;;;15.21;64.96;102201.66;5056582;28;20031;-85
2022/05/06 05:49:33;;;;;;;2.67;2.08;;;;;;;15.36;64.97;102225.34;5070017;28;20413;-80
2022/05/06 05:51:59;;;;;;;3.75;2.20;;;;;;;15.38;64.90;102231.59;5070484;28;20032;-80
2022/05/06 05:54:24;;;;;;;4.63;2.58;;;;;;;15.31;64.90;102217.19;5069796;28;20024;-80
2022/05/06 05:56:50;;;;;;;2.88;2.22;;;;;;;15.35;65.16;102229.72;5063385;28;20413;-83
2022/05/06 05:59:16;;;;;;;3.22;2.40;;;;;;;15.39;65.18;102223.81;5071365;28;20405;-83
2022/05/06 06:01:41;;;;;;;2.70;2.00;;;;;;;15.40;65.16;102228.22;5070237;28;20020;-84
2022/05/06 06:04:07;;;;;;;3.20;2.30;;;;;;;15.40;64.94;102227.34;5071141;28;20036;-84
2022/05/06 06:06:32;;;;;;;3.30;2.13;;;;;;;15.19;65.10;102191.03;5070994;28;20500;-84
2022/05/06 06:08:58;;;;;;;2.92;2.10;;;;;;;15.23;65.28;102205.31;5071498;28;20028;-83
2022/05/06 06:11:25;;;;;;;2.30;2.10;;;;;;;15.34;65.18;102217.34;5071008;28;20471;-84
2022/05/06 06:13:50;;;;;;;2.78;2.20;;;;;;;15.42;64.87;102238.84;5069964;28;20355;-83
2022/05/06 06:16:17;;;;;;;3.38;2.38;;;;;;;15.31;65.25;102216.28;5071206;28;20516;-83
2022/05/06 06:18:43;;;;;;;2.30;2.08;;;;;;;15.40;65.17;102236.13;5070157;28;20032;-84
2022/05/06 06:21:08;;;;;;;2.60;2.13;;;;;;;15.33;64.84;102223.44;5071135;28;20036;-83
2022/05/06 06:23:34;;;;;;;1.80;1.70;;;;;;;15.40;64.96;102244.03;5071169;28;20024;-83
2022/05/06 06:26:00;;;;;;;5.00;2.17;;;;;;;15.20;65.03;102211.31;5071273;28;20505;-83
2022/05/06 06:28:25;;;;;;;2.50;2.17;;;;;;;15.21;65.26;102214.84;5070067;28;20025;-83
2022/05/06 06:30:51;;;;;;;2.95;2.17;;;;;;;15.37;65.40;102240.34;5071072;28;20115;-83
2022/05/06 06:33:17;;;;;;;2.88;2.17;;;;;;;15.33;65.04;102231.34;5071132;28;20608;-84
2022/05/06 06:35:42;;;;;;;3.28;2.10;;;;;;;15.29;64.94;102218.81;5073959;28;20661;-83
2022/05/06 06:38:26;;;;;;;2.42;2.20;;;;;;;15.32;65.05;102225.97;5075957;28;20029;-83
2022/05/06 06:40:53;;;;;;;2.72;2.10;;;;;;;15.38;65.15;102243.03;5066745;28;20084;-83
2022/05/06 06:43:19;;;;;;;6.82;2.20;;;;;;;15.42;64.92;102252.03;5069930;28;20024;-83
2022/05/06 06:45:45;;;;;;;2.60;2.20;;;;;;;15.26;65.17;102216.91;5075240;28;20024;-84
2022/05/06 06:48:10;;;;;;;2.75;2.28;;;;;;;15.32;65.15;102229.50;5057571;28;20380;-84
2022/05/06 06:50:39;;;;;;;3.08;2.17;;;;;;;15.40;65.13;102241.41;5050996;28;20025;-83
2022/05/06 06:53:06;;;;;;;3.28;2.20;;;;;;;15.33;65.37;102240.97;5053778;28;20044;-84
2022/05/06 06:55:32;;;;;;;2.40;2.20;;;;;;;15.30;65.70;102243.41;5054416;28;20025;-82
2022/05/06 06:57:58;;;;;;;3.35;2.05;;;;;;;15.31;65.59;102242.59;5068838;28;20505;-85
2022/05/06 07:00:24;;;;;;;2.30;1.98;;;;;;;15.27;65.37;102237.16;5058582;28;20131;-84
2022/05/06 07:02:49;;;;;;;3.00;2.17;;;;;;;15.28;65.83;102251.19;5054181;28;20138;-83
2022/05/06 07:05:15;;;;;;;2.30;2.00;;;;;;;15.18;66.15;102251.50;5057447;28;20032;-84
2022/05/06 07:13:09;;;;;;;2.90;2.17;;;;;;;15.24;66.27;102270.28;5053324;28;20083;-83
2022/05/06 07:15:34;;;;;;;2.50;2.08;;;;;;;15.22;66.35;102267.56;5054460;28;20045;-83
2022/05/06 07:18:00;;;;;;;3.33;2.20;;;;;;;15.23;66.27;102274.63;5076941;28;20039;-84
2022/05/06 07:20:26;;;;;;;2.85;2.10;;;;;;;15.10;66.30;102245.78;5056320;28;20020;-83
2022/05/06 07:22:51;;;;;;;3.97;2.22;;;;;;;15.18;65.93;102248.88;5072997;28;20052;-84
2022/05/06 07:25:17;;;;;;;9.70;3.03;;;;;;;15.16;66.34;102258.41;5073243;28;20044;-83
2022/05/06 07:27:43;;;;;;;6.65;2.65;;;;;;;15.32;66.13;102273.34;5072154;28;20032;-82
2022/05/06 07:30:09;;;;;;;;;;;;;;;15.33;66.22;102270.81;5074035;28;20021;-83
2022/05/06 07:32:36;;;;;;;5.00;2.60;;;;;;;15.29;66.17;102266.19;5072343;28;19916;-82
2022/05/06 07:35:01;;;;;;;4.80;2.40;;;;;;;15.27;66.15;102271.34;5073959;28;20032;-82
2022/05/06 07:37:33;;;;;;;4.40;2.25;;;;;;;15.29;66.00;102266.19;5073251;28;20101;-82
2022/05/06 07:40:00;;;;;;;7.45;2.40;;;;;;;15.35;66.30;102287.63;5073576;28;20106;-82
2022/05/06 07:42:28;;;;;;;5.55;2.60;;;;;;;15.31;66.11;102275.09;5073669;28;20032;-82
2022/05/06 07:44:54;;;;;;;3.03;2.22;;;;;;;15.36;66.26;102277.97;5073600;28;20035;-81
2022/05/06 07:47:20;;;;;;;4.00;2.42;;;;;;;15.38;66.27;102279.88;5072159;28;20116;-82
2022/05/06 07:49:45;;;;;;;3.30;2.25;;;;;;;15.34;66.44;102283.16;5072385;28;20021;-81
2022/05/06 07:52:11;;;;;;;3.28;2.30;;;;;;;15.37;66.44;102288.63;5070008;28;20038;-82
2022/05/06 07:54:37;;;;;;;4.82;2.50;;;;;;;15.30;66.22;102269.72;5073753;28;20029;-82
2022/05/06 07:57:03;;;;;;;3.80;2.10;;;;;;;15.42;66.32;102300.31;5070010;28;20589;-82
2022/05/06 07:59:28;;;;;;;2.97;2.30;;;;;;;15.41;66.39;102305.50;5073669;28;20043;-82
2022/05/06 08:04:38;;;;;;;3.78;2.47;;;;;;;15.46;65.84;102311.94;5071482;28;20516;-83
2022/05/06 08:07:05;;;;;;;2.70;2.10;;;;;;;15.38;66.58;102295.69;5073399;28;20037;-83
2022/05/06 08:09:32;;;;;;;2.88;2.13;;;;;;;15.30;66.42;102286.41;5072728;28;20032;-83
2022/05/06 08:11:58;;;;;;;6.75;2.40;;;;;;;15.45;66.58;102302.22;5072832;28;20422;-83
2022/05/06 08:14:24;;;;;;;3.50;2.03;;;;;;;15.43;66.41;102288.97;5072164;28;20029;-82
2022/05/06 08:16:50;;;;;;;3.20;2.00;;;;;;;15.52;66.46;102312.31;5065173;28;20052;-84
2022/05/06 08:19:16;;;;;;;3.90;2.17;;;;;;;15.54;66.18;102304.50;5054237;28;20499;-83
2022/05/06 08:21:42;;;;;;;;;;;;;;;15.62;65.84;102304.13;5071904;28;20028;-83
2022/05/06 08:24:08;;;;;;;2.85;2.30;;;;;;;15.55;65.95;102311.56;5065321;28;20300;-83
2022/05/06 08:26:34;;;;;;;5.50;2.30;;;;;;;15.52;66.26;102293.88;5061354;28;20028;-81
2022/05/06 08:29:00;;;;;;;3.42;2.25;;;;;;;15.57;66.04;102302.03;5072027;28;20037;-82
2022/05/06 08:31:27;;;;;;;3.63;2.17;;;;;;;15.56;66.22;102297.59;5071898;28;20028;-82
2022/05/06 08:33:54;;;;;;;4.22;2.25;;;;;;;15.54;65.77;102299.22;5071789;28;20040;-83
2022/05/06 08:36:20;;;;;;;5.80;2.30;;;;;;;15.51;66.16;102286.78;5086220;28;20483;-83
2022/05/06 08:38:46;;;;;;;4.22;2.40;;;;;;;15.59;65.74;102293.41;5071974;28;20029;-82
2022/05/06 08:41:11;;;;;;;;;;;;;;;15.65;66.31;102303.38;5072233;28;20036;-84
2022/05/06 08:43:37;;;;;;;6.35;2.22;;;;;;;15.58;66.05;102277.53;5098463;28;19916;-84
2022/05/06 08:51:34;;;;;;;2.53;2.08;;;;;;;15.62;65.23;102288.31;5065388;28;20044;-84
2022/05/06 08:54:01;;;;;;;4.55;2.17;;;;;;;15.68;65.63;102290.38;5070817;28;20413;-84
2022/05/06 08:56:27;;;;;;;3.38;2.20;;;;;;;15.61;65.88;102269.78;5070777;28;20025;-85
2022/05/06 08:58:54;;;;;;;;;;;;;;;15.74;65.34;102285.50;5052393;28;20474;-84
2022/05/06 09:01:23;;;;;;;1.92;1.73;;;;;;;15.67;65.51;102283.31;5061047;28;19920;-86
2022/05/06 09:03:48;;;;;;;3.90;2.38;;;;;;;15.68;65.16;102286.03;5072176;28;20033;-84
2022/05/06 09:06:20;;;;;;;3.13;2.30;;;;;;;15.70;65.70;102288.75;5065030;28;20519;-85
2022/05/06 09:08:47;;;;;;;3.17;2.13;;;;;;;15.68;64.29;102272.88;5069411;28;20025;-84
2022/05/06 09:11:13;;;;;;;4.85;2.30;;;;;;;15.62;65.27;102267.25;5070706;28;20056;-84
2022/05/06 09:13:52;;;;;;;2.83;2.17;;;;;;;15.76;65.62;102288.22;5070066;28;20113;-84
2022/05/06 09:16:40;;;;;;;3.65;2.45;;;;;;;15.73;65.43;102283.69;5071764;28;20119;-83
2022/05/06 09:19:27;;;;;;;3.80;2.30;;;;;;;15.78;65.52;102284.84;5091489;28;20108;-83
2022/05/06 09:21:59;;;;;;;7.30;2.25;;;;;;;15.74;64.97;102287.25;5063215;28;20427;-84
2022/05/06 09:24:27;;;;;;;8.90;2.67;;;;;;;15.75;65.49;102287.34;5069971;28;20037;-83
2022/05/06 09:26:59;;;;;;;7.68;2.45;;;;;;;15.78;65.64;102284.84;5071327;28;20032;-83
2022/05/06 09:29:34;;;;;;;4.72;2.50;;;;;;;15.80;65.85;102284.97;5070993;28;20048;-84
2022/05/06 09:32:35;;;;;;;5.75;2.42;;;;;;;15.76;66.09;102278.59;5065644;28;20090;-84
2022/05/06 09:35:07;;;;;;;5.75;2.78;;;;;;;15.83;66.07;102280.78;5030227;28;20044;-84
2022/05/06 09:37:39;;;;;;;5.20;2.40;;;;;;;15.81;65.89;102281.47;5050830;28;20087;-84
2022/05/06 09:40:12;;;;;;;7.93;2.53;;;;;;;15.84;66.09;102282.56;5054181;28;20029;-84
2022/05/06 09:42:43;;;;;;;7.07;2.47;;;;;;;15.75;66.10;102261.00;5049835;28;20096;-84
2022/05/06 09:45:11;;;;;;;4.97;2.45;;;;;;;15.74;66.15;102263.53;5066280;28;20050;-84
2022/05/06 09:47:38;;;;;;;3.60;2.22;;;;;;;15.85;66.28;102289.69;5051938;28;20387;-83
2022/05/06 09:50:06;;;;;;;5.55;2.60;;;;;;;15.75;66.27;102268.91;5071165;28;20720;-84
2022/05/06 09:52:32;;;;;;;6.82;2.53;;;;;;;15.80;66.48;102279.69;5069607;28;20383;-84
2022/05/06 09:54:57;;;;;;;5.15;2.63;;;;;;;15.83;66.80;102291.31;5069612;28;20519;-83
2022/05/06 09:57:23;;;;;;;5.50;2.50;;;;;;;15.82;66.97;102288.59;5053072;28;20570;-83
2022/05/06 09:59:50;;;;;;;5.90;2.90;;;;;;;15.71;66.65;102272.13;5070002;28;20186;-83
2022/05/06 10:02:17;;;;;;;4.28;2.17;;;;;;;15.81;66.85;102285.06;5069162;28;20032;-84
2022/05/06 10:04:43;;;;;;;8.57;2.65;;;;;;;15.81;66.92;102287.69;5071151;28;20514;-83
2022/05/06 10:07:14;;;;;;;5.60;2.30;;;;;;;15.83;66.92;102286.06;5069155;28;20445;-83
2022/05/06 10:09:48;;;;;;;4.28;2.30;;;;;;;15.82;67.16;102292.13;5069413;28;20028;-82
2022/05/06 10:12:16;;;;;;;4.97;2.65;;;;;;;15.77;67.26;102288.34;5068223;28;20037;-81
2022/05/06 10:14:43;;;;;;;4.45;2.35;;;;;;;15.84;64.97;102294.84;5060070;28;20082;-81
2022/05/06 10:17:09;;;;;;;3.55;2.20;;;;;;;15.84;65.86;102301.00;5051748;28;20032;-81
2022/05/06 10:19:38;;;;;;;6.00;2.50;;;;;;;15.93;66.38;102303.25;5069026;28;20017;-81
2022/05/06 10:22:04;;;;;;;3.97;2.05;;;;;;;15.96;66.25;102297.25;5067579;28;20025;-81
2022/05/06 10:24:49;;;;;;;6.03;2.70;;;;;;;15.98;66.04;102298.25;5065719;28;20038;-81
2022/05/06 10:27:22;;;;;;;4.68;2.10;;;;;;;16.00;65.64;102305.44;5079495;28;20032;-81
2022/05/06 10:32:55;;;;;;;5.40;2.42;;;;;;;16.01;66.12;102301.06;5067502;28;20035;-81
2022/05/06 10:35:40;;;;;;;4.60;2.38;;;;;;;16.06;65.63;102294.31;5070245;28;20111;-81
2022/05/06 10:38:22;;;;;;;4.25;2.30;;;;;;;16.05;66.02;102282.88;5066376;28;20032;-81
2022/05/06 10:40:50;;;;;;;3.28;2.30;;;;;;;16.06;65.97;102287.34;5063629;28;20032;-81
2022/05/06 10:43:40;;;;;;;4.18;2.53;;;;;;;16.03;66.38;102273.09;5066308;28;20104;-81
2022/05/06 10:46:09;;;;;;;4.85;2.63;;;;;;;16.03;65.92;102276.63;5062762;28;20063;-81
2022/05/06 10:48:35;;;;;;;3.72;2.30;;;;;;;16.02;66.17;102269.53;5079258;28;20072;-80
2022/05/06 10:51:24;;;;;;;6.80;2.30;;;;;;;16.03;66.29;102270.44;5063930;28;20024;-81
2022/05/06 10:53:50;;;;;;;4.85;2.60;;;;;;;16.01;65.97;102257.19;5081494;28;20056;-81
2022/05/06 10:56:16;;;;;;;;;;;;;;;16.06;66.12;102267.97;5050086;28;20037;-81
2022/05/06 10:58:42;;;;;;;7.97;2.60;;;;;;;16.04;66.23;102261.69;5049855;28;20384;-81
2022/05/06 11:01:17;;;;;;;6.45;2.75;;;;;;;16.04;66.40;102269.59;5064944;28;20032;-81
2022/05/06 11:03:53;;;;;;;6.93;3.15;;;;;;;16.01;66.05;102256.28;5049839;28;20032;-81
2022/05/06 11:06:22;;;;;;;6.70;2.83;;;;;;;16.09;66.20;102265.53;5049866;28;20018;-81
2022/05/06 11:08:47;;;;;;;5.75;2.92;;;;;;;16.02;66.10;102261.66;5050028;28;20029;-81
2022/05/06 11:11:18;;;;;;;7.53;3.22;;;;;;;16.08;66.27;102261.94;5065116;28;20520;-82
2022/05/06 11:13:47;;;;;;;9.05;2.92;;;;;;;16.11;66.20;102255.97;5064995;28;20384;-81
2022/05/06 11:16:14;;;;;;;9.43;3.13;;;;;;;16.06;66.07;102254.78;5050210;28;20028;-81
2022/05/06 11:18:44;;;;;;;5.68;2.83;;;;;;;16.14;66.05;102264.03;5065454;28;20190;-81
2022/05/06 11:21:23;;;;;;;10.05;3.85;;;;;;;16.08;66.08;102253.16;5050050;28;20513;-81
2022/05/06 11:23:49;;;;;;;8.00;3.38;;;;;;;16.12;66.13;102248.97;5069046;28;20094;-81
2022/05/06 11:26:29;;;;;;;8.23;3.88;;;;;;;16.14;66.22;102258.75;5053312;28;20053;-81
2022/05/06 11:29:05;;;;;;;8.15;3.50;;;;;;;16.15;66.18;102249.13;5053831;28;20056;-81
2022/05/06 11:31:31;;;;;;;7.28;3.45;;;;;;;16.20;66.12;102240.66;5053462;28;20039;-81
2022/05/06 11:34:02;;;;;;;10.90;3.50;;;;;;;16.19;66.30;102238.84;5069253;28;20114;-81
2022/05/06 11:36:27;;;;;;;8.43;3.45;;;;;;;16.16;66.39;102236.03;5086288;28;20021;-81
2022/05/06 11:38:53;;;;;;;8.30;3.67;;;;;;;16.23;66.12;102239.91;5053700;28;20025;-81
2022/05/06 11:41:19;;;;;;;8.35;3.00;;;;;;;16.22;66.43;102230.19;5053444;28;20623;-82
2022/05/06 11:43:46;;;;;;;9.18;3.30;;;;;;;16.24;66.39;102228.56;5053528;28;20429;-81
2022/05/06 11:48:59;;;;;;;9.57;3.58;;;;;;;16.23;66.47;102235.56;5054051;28;20478;-82
2022/05/06 11:51:27;;;;;;;9.10;3.38;;;;;;;16.26;66.83;102227.81;5053679;28;20491;-81
2022/05/06 11:53:53;;;;;;;11.88;3.88;;;;;;;16.26;66.52;102227.81;5053724;28;20418;-81
2022/05/06 11:56:22;;;;;;;;;;;;;;;16.32;66.53;102221.03;5054122;28;20037;-81
2022/05/06 11:58:48;;;;;;;9.30;3.70;;;;;;;16.26;66.69;102212.00;5053939;28;19912;-82
2022/05/06 12:01:24;;;;;;;7.72;3.80;;;;;;;16.32;66.54;102221.03;5053793;28;20410;-81